メインページ
METAR-TAF:

METAR-TAF

空港 :

Al Jawf, サウジアラビア

緯度: 29-47N, 経度: 040-06E, 海抜: 689m

現時点の気象観測

当レポートは32分前の09:00(UTC)に作成
西の風 13kt
気温 35°C
湿度 22%
気圧 1009 hPa
視程10km以上
1,500メートル以下は雲なし、積乱雲なし

METAR: OESK 230900Z 28013KT CAVOK 35/10 Q1009

時間: 12:32 (09:32 UTC)

予報

当レポートは10時間32分前の23:00(UTC)に作成
予報は23日の 00時(UTC)から 24日の 06時(UTC)まで有効
西/北西の風 8kt、最大18ktの突風を伴う
視程: 8000m
高度4000ftの雲は散在している

TAF: OESK 222300Z 2300/2406 29008G18KT 8000 SCT040

4,000以上の空港の気象観測と天気予報(METAR報とTAF報)

利用可能な観測所は地図上に黄色い丸と赤い丸で示す。

丸の上にカーソルを重ねると観測所名を参照できる。

次にクリックすると気象観測と天気予報を参照できる。

マップの切り替え:黒色「×」印の緑ボタンをクリックして拡大、「-」印の緑ボタンをクリックして縮小、緑色の三角印をクリックして隣りの地図に切り替え


METAR-TAF: